Time;durP1;ratioP1;P1;durP2;ratioP2;P2;SDS_P1;SDS_P2;PMS_P1;PMS_P2;Temp;Humidity;BMP_temperature;BMP_pressure;BME280_temperature;BME280_humidity;BME280_pressure;Samples;Min_cycle;Max_cycle;Signal;HPM_P1;HPM_P2
2022/07/16 00:01:56;;;;;;;0.70;0.70;;;;;16.60;98770.00;;;;5114307;28;20194;-69
2022/07/16 00:04:23;;;;;;;1.10;1.10;;;;;16.70;98768.00;;;;5113013;28;20193;-68
2022/07/16 00:06:49;;;;;;;1.43;1.33;;;;;16.60;98770.00;;;;5114010;28;20221;-69
2022/07/16 00:09:18;;;;;;;0.80;0.80;;;;;16.70;98773.00;;;;5114012;28;20245;-69
2022/07/16 00:11:45;;;;;;;0.90;0.90;;;;;16.60;98779.00;;;;5114092;28;20196;-69
2022/07/16 00:14:12;;;;;;;1.17;1.17;;;;;16.50;98778.00;;;;5114039;28;20240;-68
2022/07/16 00:16:39;;;;;;;0.90;0.90;;;;;16.50;98767.00;;;;5114051;28;20262;-70
2022/07/16 00:19:19;;;;;;;1.00;1.00;;;;;16.50;98771.00;;;;5096144;28;20574;-69
2022/07/16 00:21:47;;;;;;;0.70;0.70;;;;;16.50;98772.00;;;;5114070;28;20190;-69
2022/07/16 00:24:15;;;;;;;0.77;0.77;;;;;16.60;98772.00;;;;5113883;28;20225;-68
2022/07/16 00:26:42;;;;;;;0.70;0.70;;;;;16.40;98768.00;;;;5113826;28;20253;-69
2022/07/16 00:29:12;;;;;;;0.70;0.70;;;;;16.30;98766.00;;;;5113829;28;20210;-69
2022/07/16 00:31:39;;;;;;;0.60;0.60;;;;;16.10;98773.00;;;;5113874;28;20202;-68
2022/07/16 00:34:09;;;;;;;0.83;0.83;;;;;16.10;98768.00;;;;5113719;28;20226;-68
2022/07/16 00:36:37;;;;;;;1.00;1.00;;;;;16.10;98771.00;;;;5113798;28;20200;-68
2022/07/16 00:39:04;;;;;;;1.07;1.07;;;;;16.10;98780.00;;;;5113721;28;20214;-68
2022/07/16 00:41:33;;;;;;;0.80;0.80;;;;;15.90;98771.00;;;;5113744;28;20190;-69
2022/07/16 00:44:05;;;;;;;0.60;0.60;;;;;15.80;98762.00;;;;5113639;28;20251;-68
2022/07/16 00:46:37;;;;;;;0.73;0.73;;;;;15.70;98777.00;;;;5113651;28;20214;-69
2022/07/16 00:49:05;;;;;;;0.90;0.90;;;;;15.60;98775.00;;;;5095596;28;20665;-68
2022/07/16 00:51:37;;;;;;;0.80;0.80;;;;;15.60;98773.00;;;;5095612;28;20195;-69
2022/07/16 00:54:04;;;;;;;0.80;0.80;;;;;15.60;98769.00;;;;5113510;28;20220;-69
2022/07/16 00:56:31;;;;;;;0.80;0.80;;;;;15.60;98770.00;;;;5113572;28;20201;-68
2022/07/16 00:58:58;;;;;;;5.00;2.63;;;;;15.70;98767.00;;;;5113435;28;20221;-68
2022/07/16 01:01:25;;;;;;;1.53;1.43;;;;;15.60;98767.00;;;;5113675;28;20289;-68
2022/07/16 01:03:52;;;;;;;0.80;0.80;;;;;15.60;98768.00;;;;5095480;28;20240;-69
2022/07/16 01:06:19;;;;;;;1.10;1.10;;;;;15.50;98778.00;;;;5113384;28;20283;-69
2022/07/16 01:08:48;;;;;;;1.20;1.20;;;;;15.50;98772.00;;;;5113306;28;20300;-69
2022/07/16 01:11:19;;;;;;;0.50;0.50;;;;;15.30;98769.00;;;;5113359;28;20198;-68
2022/07/16 01:13:48;;;;;;;0.70;0.70;;;;;15.30;98762.00;;;;5113257;28;20304;-68
2022/07/16 01:16:15;;;;;;;0.60;0.60;;;;;15.40;98768.00;;;;5115342;28;20263;-70
2022/07/16 01:18:43;;;;;;;0.83;0.83;;;;;15.40;98780.00;;;;5116973;28;20298;-69
2022/07/16 01:21:11;;;;;;;1.00;1.00;;;;;15.50;98779.00;;;;5116737;28;20198;-69
2022/07/16 01:23:39;;;;;;;0.70;0.70;;;;;15.40;98778.00;;;;5116628;28;20653;-69
2022/07/16 01:26:06;;;;;;;0.80;0.80;;;;;15.30;98774.00;;;;5116565;28;20228;-70
2022/07/16 01:28:35;;;;;;;1.13;1.13;;;;;15.30;98772.00;;;;5116673;28;20228;-70
2022/07/16 01:31:02;;;;;;;0.63;0.63;;;;;15.40;98771.00;;;;5120122;28;20205;-69
2022/07/16 01:33:31;;;;;;;0.60;0.60;;;;;15.40;98776.00;;;;5116763;28;20222;-69
2022/07/16 01:35:59;;;;;;;0.90;0.90;;;;;15.20;98777.00;;;;5116891;28;20209;-69
2022/07/16 01:38:30;;;;;;;1.43;1.30;;;;;15.10;98777.00;;;;5116602;28;20608;-69
2022/07/16 01:41:00;;;;;;;0.73;0.73;;;;;15.10;98776.00;;;;5116591;28;20202;-69
2022/07/16 01:43:28;;;;;;;0.63;0.63;;;;;15.10;98770.00;;;;5116304;28;20197;-69
2022/07/16 01:45:56;;;;;;;9.00;1.73;;;;;15.00;98775.00;;;;5116306;28;20206;-69
2022/07/16 01:48:24;;;;;;;1.03;1.03;;;;;15.10;98773.00;;;;5116219;28;20637;-69
2022/07/16 01:50:52;;;;;;;0.97;0.97;;;;;15.00;98771.00;;;;5116461;28;20560;-69
2022/07/16 01:53:20;;;;;;;0.60;0.60;;;;;15.10;98764.00;;;;5116334;28;20198;-69
2022/07/16 01:55:47;;;;;;;0.87;0.87;;;;;14.90;98765.00;;;;5098267;28;20194;-69
2022/07/16 01:58:15;;;;;;;0.90;0.90;;;;;14.90;98765.00;;;;5116133;28;20284;-69
2022/07/16 02:00:44;;;;;;;0.60;0.60;;;;;14.90;98767.00;;;;5116130;28;20190;-69
2022/07/16 02:03:12;;;;;;;1.57;1.47;;;;;14.80;98770.00;;;;5116083;28;20193;-69
2022/07/16 02:05:39;;;;;;;0.60;0.60;;;;;14.60;98764.00;;;;5116052;28;20630;-69
2022/07/16 02:08:06;;;;;;;0.67;0.67;;;;;14.60;98775.00;;;;5115915;28;20664;-69
2022/07/16 02:10:34;;;;;;;0.50;0.50;;;;;14.70;98774.00;;;;5115988;28;20192;-69
2022/07/16 02:13:01;;;;;;;0.80;0.80;;;;;14.50;98771.00;;;;5115912;28;20700;-69
2022/07/16 02:15:28;;;;;;;0.80;0.80;;;;;14.50;98766.00;;;;5115868;28;20226;-69
2022/07/16 02:17:55;;;;;;;0.77;0.77;;;;;14.60;98778.00;;;;5115836;28;20190;-69
2022/07/16 02:20:22;;;;;;;1.90;1.73;;;;;14.60;98777.00;;;;5115750;28;20218;-69
2022/07/16 02:22:49;;;;;;;1.93;1.67;;;;;14.50;98774.00;;;;5115721;28;20186;-69
2022/07/16 02:25:16;;;;;;;0.60;0.60;;;;;14.50;98762.00;;;;5097950;28;20216;-69
2022/07/16 02:30:25;;;;;;;0.70;0.70;;;;;14.60;98766.00;;;;5114632;28;20261;-69
2022/07/16 02:32:54;;;;;;;0.80;0.80;;;;;14.70;98762.00;;;;5115589;28;20213;-69
2022/07/16 02:35:21;;;;;;;1.37;1.37;;;;;14.70;98762.00;;;;5115530;28;20224;-69
2022/07/16 02:37:48;;;;;;;1.07;1.07;;;;;14.60;98764.00;;;;5115524;28;20663;-69
2022/07/16 02:40:17;;;;;;;0.90;0.90;;;;;14.50;98763.00;;;;5115459;28;20214;-69
2022/07/16 02:42:44;;;;;;;1.33;1.33;;;;;14.40;98768.00;;;;5115413;28;20198;-69
2022/07/16 02:45:14;;;;;;;0.60;0.60;;;;;14.30;98771.00;;;;5115344;28;20665;-70
2022/07/16 02:47:41;;;;;;;0.80;0.80;;;;;14.40;98770.00;;;;5115429;28;20538;-69
2022/07/16 02:50:09;;;;;;;1.30;1.30;;;;;14.30;98767.00;;;;5115282;28;20550;-69
2022/07/16 02:52:38;;;;;;;0.97;0.97;;;;;14.30;98767.00;;;;5097607;28;20214;-69
2022/07/16 02:55:06;;;;;;;0.60;0.60;;;;;14.40;98763.00;;;;5097355;28;20333;-69
2022/07/16 02:57:33;;;;;;;1.20;1.10;;;;;14.20;98764.00;;;;5115216;28;20293;-69
2022/07/16 03:00:00;;;;;;;0.70;0.70;;;;;14.20;98765.00;;;;5115080;28;20350;-69
2022/07/16 03:02:29;;;;;;;1.10;0.97;;;;;14.10;98768.00;;;;5115163;28;20194;-69
2022/07/16 03:04:58;;;;;;;1.10;1.10;;;;;14.20;98768.00;;;;5114986;28;20263;-69
2022/07/16 03:07:25;;;;;;;0.80;0.80;;;;;14.10;98766.00;;;;5115014;28;20228;-69
2022/07/16 03:09:54;;;;;;;1.00;1.00;;;;;14.10;98767.00;;;;5114952;28;20664;-69
2022/07/16 03:12:21;;;;;;;0.60;0.60;;;;;14.00;98767.00;;;;5114956;28;20586;-69
2022/07/16 03:14:50;;;;;;;0.70;0.70;;;;;14.00;98767.00;;;;5114858;28;20749;-69
2022/07/16 03:17:17;;;;;;;0.70;0.70;;;;;13.80;98759.00;;;;5114917;28;20574;-71
2022/07/16 03:19:44;;;;;;;0.97;0.97;;;;;13.70;98762.00;;;;5114752;28;20218;-69
2022/07/16 03:22:11;;;;;;;0.90;0.90;;;;;13.60;98763.00;;;;5114833;28;20193;-69
2022/07/16 03:24:38;;;;;;;0.60;0.60;;;;;13.80;98768.00;;;;5114635;28;20233;-69
2022/07/16 03:27:07;;;;;;;0.73;0.73;;;;;13.80;98760.00;;;;5114933;28;20225;-69
2022/07/16 03:29:34;;;;;;;2.80;2.07;;;;;13.80;98761.00;;;;5114907;28;20219;-69
2022/07/16 03:32:01;;;;;;;0.60;0.60;;;;;13.90;98759.00;;;;5096963;28;20198;-69
2022/07/16 03:34:28;;;;;;;0.80;0.80;;;;;13.80;98768.00;;;;5114577;28;20233;-69
2022/07/16 03:36:57;;;;;;;0.87;0.87;;;;;13.60;98767.00;;;;5114665;28;20780;-69
2022/07/16 03:39:24;;;;;;;0.70;0.70;;;;;13.60;98770.00;;;;5114343;28;20228;-69
2022/07/16 03:41:52;;;;;;;1.23;1.23;;;;;13.50;98762.00;;;;5114508;28;20189;-69
2022/07/16 03:44:19;;;;;;;0.60;0.60;;;;;13.60;98768.00;;;;5096506;28;20202;-69
2022/07/16 03:46:45;;;;;;;0.90;0.90;;;;;13.60;98770.00;;;;5114386;28;20656;-69
2022/07/16 03:49:12;;;;;;;0.80;0.80;;;;;13.60;98769.00;;;;5114343;28;20190;-69
2022/07/16 03:51:39;;;;;;;0.53;0.53;;;;;13.60;98774.00;;;;5114393;28;20193;-69
2022/07/16 03:54:06;;;;;;;0.77;0.77;;;;;13.70;98769.00;;;;5114399;28;20251;-69
2022/07/16 03:56:33;;;;;;;0.50;0.50;;;;;13.80;98770.00;;;;5114321;28;20186;-69
2022/07/16 03:59:01;;;;;;;0.80;0.80;;;;;13.60;98783.00;;;;5114274;28;20190;-69
2022/07/16 04:01:30;;;;;;;0.93;0.93;;;;;13.60;98778.00;;;;5114249;28;20222;-69
2022/07/16 04:03:59;;;;;;;0.80;0.80;;;;;13.80;98781.00;;;;5114157;28;20210;-69
2022/07/16 04:06:26;;;;;;;0.77;0.77;;;;;13.80;98776.00;;;;5114107;28;20296;-69
2022/07/16 04:08:53;;;;;;;0.70;0.70;;;;;13.80;98782.00;;;;5114135;28;20186;-69
2022/07/16 04:11:20;;;;;;;1.33;1.23;;;;;13.80;98784.00;;;;5114126;28;20194;-69
2022/07/16 04:13:47;;;;;;;1.20;1.10;;;;;13.70;98786.00;;;;5114154;28;20224;-69
2022/07/16 04:16:14;;;;;;;0.83;0.83;;;;;13.70;98796.00;;;;5114072;28;20197;-69
2022/07/16 04:18:41;;;;;;;0.67;0.67;;;;;13.70;98800.00;;;;5114023;28;20196;-69
2022/07/16 04:21:08;;;;;;;1.00;1.00;;;;;13.80;98798.00;;;;5114173;28;20283;-69
2022/07/16 04:23:35;;;;;;;1.07;1.07;;;;;13.70;98799.00;;;;5114007;28;20239;-70
2022/07/16 04:26:02;;;;;;;0.93;0.93;;;;;13.80;98788.00;;;;5113926;28;20214;-69
2022/07/16 04:28:29;;;;;;;1.00;1.00;;;;;13.90;98786.00;;;;5113975;28;20218;-69
2022/07/16 04:30:56;;;;;;;0.90;0.90;;;;;14.00;98798.00;;;;5113788;28;20274;-69
2022/07/16 04:33:24;;;;;;;0.80;0.80;;;;;14.00;98795.00;;;;5113846;28;20245;-69
2022/07/16 04:35:50;;;;;;;1.40;1.30;;;;;13.90;98803.00;;;;5113814;28;20222;-69
2022/07/16 04:38:18;;;;;;;0.93;0.93;;;;;14.00;98803.00;;;;5113755;28;20214;-69
2022/07/16 04:40:45;;;;;;;0.50;0.50;;;;;14.00;98805.00;;;;5113718;28;20218;-69
2022/07/16 04:43:12;;;;;;;1.43;1.43;;;;;14.10;98810.00;;;;5113680;28;20198;-68
2022/07/16 04:45:38;;;;;;;0.87;0.87;;;;;14.10;98810.00;;;;5113586;28;20233;-69
2022/07/16 04:48:07;;;;;;;1.67;1.57;;;;;14.00;98807.00;;;;5113608;28;20224;-69
2022/07/16 04:50:35;;;;;;;1.17;1.17;;;;;14.00;98811.00;;;;5096642;28;20222;-69
2022/07/16 04:53:02;;;;;;;0.90;0.90;;;;;14.00;98811.00;;;;5117136;28;20190;-69
2022/07/16 04:55:28;;;;;;;1.23;1.13;;;;;14.00;98808.00;;;;5117079;28;20228;-69
2022/07/16 04:57:56;;;;;;;1.10;1.10;;;;;14.20;98808.00;;;;5117169;28;20210;-69
2022/07/16 05:00:23;;;;;;;1.73;1.40;;;;;14.20;98803.00;;;;5116979;28;20282;-69
2022/07/16 05:02:58;;;;;;;4.07;1.50;;;;;14.30;98808.00;;;;5117129;28;20194;-71
2022/07/16 05:05:27;;;;;;;0.80;0.80;;;;;14.20;98813.00;;;;5116919;28;20217;-69
2022/07/16 05:07:55;;;;;;;0.87;0.87;;;;;14.30;98807.00;;;;5116955;28;20222;-69
2022/07/16 05:10:22;;;;;;;0.77;0.77;;;;;14.40;98808.00;;;;5116747;28;20226;-69
2022/07/16 05:12:49;;;;;;;0.80;0.80;;;;;14.50;98815.00;;;;5116844;28;20278;-69
2022/07/16 05:15:16;;;;;;;0.70;0.70;;;;;14.70;98815.00;;;;5116845;28;20222;-69
2022/07/16 05:17:46;;;;;;;1.00;1.00;;;;;14.70;98819.00;;;;5116758;28;20202;-69
2022/07/16 05:20:13;;;;;;;1.20;1.20;;;;;14.80;98819.00;;;;5098890;28;20221;-69
2022/07/16 05:22:40;;;;;;;0.60;0.60;;;;;14.80;98825.00;;;;5116748;28;20303;-69
2022/07/16 05:25:08;;;;;;;0.60;0.60;;;;;15.00;98821.00;;;;5116669;28;20190;-69
2022/07/16 05:27:36;;;;;;;0.70;0.70;;;;;15.10;98831.00;;;;5116599;28;20218;-69
2022/07/16 05:30:06;;;;;;;0.90;0.90;;;;;15.10;98826.00;;;;5116559;28;20206;-69
2022/07/16 05:32:33;;;;;;;1.10;1.10;;;;;15.20;98825.00;;;;5116608;28;20281;-69
2022/07/16 05:35:00;;;;;;;1.00;1.00;;;;;15.30;98824.00;;;;5116412;28;20205;-69
2022/07/16 05:37:30;;;;;;;1.53;1.43;;;;;15.30;98819.00;;;;5098490;28;20212;-69
2022/07/16 05:39:56;;;;;;;0.93;0.93;;;;;15.50;98819.00;;;;5116459;28;20245;-69
2022/07/16 05:42:24;;;;;;;0.70;0.70;;;;;15.40;98822.00;;;;5116598;28;20224;-69
2022/07/16 05:44:51;;;;;;;0.67;0.67;;;;;15.50;98823.00;;;;5116713;28;20196;-70
2022/07/16 05:47:17;;;;;;;0.97;0.97;;;;;15.60;98832.00;;;;5116556;28;20233;-69
2022/07/16 05:49:44;;;;;;;0.97;0.97;;;;;15.60;98830.00;;;;5116457;28;20194;-69
2022/07/16 05:52:11;;;;;;;0.90;0.90;;;;;15.70;98833.00;;;;5116363;28;20186;-69
2022/07/16 05:54:38;;;;;;;0.80;0.80;;;;;15.80;98824.00;;;;5116376;28;20212;-69
2022/07/16 05:57:05;;;;;;;1.07;1.07;;;;;15.90;98825.00;;;;5116249;28;20206;-69
2022/07/16 05:59:32;;;;;;;0.70;0.70;;;;;16.00;98823.00;;;;5098279;28;20190;-69
2022/07/16 06:02:01;;;;;;;0.50;0.50;;;;;16.00;98828.00;;;;5114620;28;20229;-69
2022/07/16 06:04:28;;;;;;;0.53;0.53;;;;;16.10;98825.00;;;;5116026;28;20198;-70
2022/07/16 06:06:56;;;;;;;0.70;0.70;;;;;16.30;98830.00;;;;5115918;28;20222;-69
2022/07/16 06:09:25;;;;;;;0.50;0.50;;;;;16.40;98836.00;;;;5115963;28;20194;-69
2022/07/16 06:11:52;;;;;;;0.93;0.93;;;;;16.40;98828.00;;;;5115899;28;20213;-69
2022/07/16 06:14:19;;;;;;;0.77;0.77;;;;;16.50;98828.00;;;;5115925;28;20670;-71
2022/07/16 06:16:47;;;;;;;0.77;0.77;;;;;16.60;98835.00;;;;5115941;28;20313;-69
2022/07/16 06:19:15;;;;;;;1.07;1.03;;;;;16.60;98832.00;;;;5115804;28;20186;-69
2022/07/16 06:21:42;;;;;;;0.60;0.60;;;;;16.60;98835.00;;;;5115666;28;20737;-69
2022/07/16 06:24:09;;;;;;;0.80;0.80;;;;;16.70;98837.00;;;;5115794;28;20278;-69
2022/07/16 06:26:36;;;;;;;0.97;0.97;;;;;16.80;98838.00;;;;5115572;28;20250;-69
2022/07/16 06:29:05;;;;;;;0.47;0.47;;;;;16.90;98840.00;;;;5097733;28;20645;-69
2022/07/16 06:31:32;;;;;;;0.80;0.80;;;;;17.00;98844.00;;;;5115531;28;20256;-69
2022/07/16 06:33:59;;;;;;;0.60;0.60;;;;;17.30;98847.00;;;;5115606;28;20196;-69
2022/07/16 06:36:28;;;;;;;0.67;0.67;;;;;17.20;98844.00;;;;5115460;28;20580;-69
2022/07/16 06:38:55;;;;;;;0.80;0.80;;;;;17.20;98851.00;;;;5097503;28;20202;-69
2022/07/16 06:41:22;;;;;;;0.70;0.70;;;;;17.20;98843.00;;;;5115531;28;20218;-69
2022/07/16 06:43:51;;;;;;;0.60;0.60;;;;;17.20;98854.00;;;;5115478;28;20822;-69
2022/07/16 06:46:17;;;;;;;0.50;0.50;;;;;17.30;98859.00;;;;5115246;28;20229;-69
2022/07/16 06:48:45;;;;;;;0.70;0.70;;;;;17.30;98849.00;;;;5115364;28;20209;-69
2022/07/16 06:51:13;;;;;;;0.50;0.50;;;;;17.40;98852.00;;;;5115311;28;20226;-69
2022/07/16 06:53:42;;;;;;;0.50;0.50;;;;;17.60;98855.00;;;;5097326;28;20205;-69
2022/07/16 06:56:09;;;;;;;0.30;0.30;;;;;17.70;98849.00;;;;5115159;28;20232;-69
2022/07/16 06:58:36;;;;;;;0.60;0.60;;;;;17.80;98848.00;;;;5115257;28;20651;-69
2022/07/16 07:01:03;;;;;;;0.63;0.63;;;;;17.80;98860.00;;;;5115133;28;20214;-69
2022/07/16 07:03:30;;;;;;;0.77;0.77;;;;;17.80;98865.00;;;;5115103;28;20193;-69
2022/07/16 07:05:57;;;;;;;0.90;0.90;;;;;18.00;98857.00;;;;5115001;28;20296;-69
2022/07/16 07:08:25;;;;;;;0.50;0.50;;;;;18.10;98862.00;;;;5115013;28;20232;-69
2022/07/16 07:10:52;;;;;;;1.00;1.00;;;;;18.10;98863.00;;;;5115010;28;20202;-69
2022/07/16 07:13:19;;;;;;;0.53;0.53;;;;;18.10;98866.00;;;;5114545;28;20201;-69
2022/07/16 07:15:48;;;;;;;0.40;0.40;;;;;18.30;98858.00;;;;5114891;28;20545;-69
2022/07/16 07:18:15;;;;;;;4.50;1.10;;;;;18.30;98861.00;;;;5114937;28;20198;-70
2022/07/16 07:20:42;;;;;;;0.60;0.60;;;;;18.50;98869.00;;;;5114855;28;20186;-69
2022/07/16 07:23:09;;;;;;;0.50;0.50;;;;;18.60;98863.00;;;;5114735;28;20202;-69
2022/07/16 07:25:39;;;;;;;0.60;0.60;;;;;18.70;98869.00;;;;5114913;28;20198;-69
2022/07/16 07:28:08;;;;;;;1.00;1.00;;;;;18.80;98870.00;;;;5114634;28;20221;-69
2022/07/16 07:30:35;;;;;;;0.50;0.50;;;;;18.80;98872.00;;;;5096578;28;20194;-69
2022/07/16 07:33:02;;;;;;;0.60;0.60;;;;;18.80;98873.00;;;;5114675;28;20350;-69
2022/07/16 07:35:29;;;;;;;0.57;0.57;;;;;18.80;98871.00;;;;5114688;28;20190;-69
2022/07/16 07:37:58;;;;;;;0.70;0.70;;;;;18.90;98873.00;;;;5114574;28;20210;-69
2022/07/16 07:40:25;;;;;;;0.60;0.60;;;;;19.00;98864.00;;;;5114590;28;20205;-69
2022/07/16 07:42:54;;;;;;;0.60;0.60;;;;;19.10;98872.00;;;;5114556;28;20212;-69
2022/07/16 07:45:21;;;;;;;0.60;0.60;;;;;19.30;98868.00;;;;5114480;28;20822;-69
2022/07/16 07:47:48;;;;;;;0.53;0.53;;;;;19.40;98865.00;;;;5114403;28;20246;-69
2022/07/16 07:50:15;;;;;;;0.60;0.60;;;;;19.40;98874.00;;;;5114395;28;20293;-69
2022/07/16 07:52:42;;;;;;;0.53;0.53;;;;;19.60;98870.00;;;;5114382;28;20182;-69
2022/07/16 07:55:11;;;;;;;0.63;0.63;;;;;19.50;98873.00;;;;5096344;28;20210;-69
2022/07/16 07:57:40;;;;;;;0.53;0.53;;;;;19.70;98871.00;;;;5114398;28;20245;-69
2022/07/16 08:00:09;;;;;;;0.50;0.50;;;;;19.70;98875.00;;;;5114326;28;20242;-69
2022/07/16 08:02:41;;;;;;;0.50;0.50;;;;;19.80;98869.00;;;;5117594;28;20657;-69
2022/07/16 08:05:09;;;;;;;0.60;0.60;;;;;19.90;98871.00;;;;5114657;28;20190;-69
2022/07/16 08:07:36;;;;;;;0.50;0.50;;;;;19.90;98870.00;;;;5114982;28;20222;-69
2022/07/16 08:10:04;;;;;;;0.50;0.50;;;;;20.10;98870.00;;;;5114609;28;20225;-69
2022/07/16 08:12:33;;;;;;;0.50;0.50;;;;;20.20;98874.00;;;;5114259;28;20222;-69
2022/07/16 08:15:00;;;;;;;0.53;0.53;;;;;20.40;98872.00;;;;5114252;28;20208;-69
2022/07/16 08:17:27;;;;;;;0.77;0.77;;;;;20.40;98867.00;;;;5113853;28;20241;-69
2022/07/16 08:19:54;;;;;;;0.53;0.53;;;;;20.50;98872.00;;;;5114084;28;20276;-69
2022/07/16 08:22:21;;;;;;;0.50;0.50;;;;;20.30;98869.00;;;;5113918;28;20664;-69
2022/07/16 08:27:33;;;;;;;9.37;0.87;;;;;20.50;98869.00;;;;5117485;28;20652;-69
2022/07/16 08:30:00;;;;;;;0.60;0.60;;;;;20.60;98866.00;;;;5117564;28;20625;-69
2022/07/16 08:32:27;;;;;;;3.80;0.70;;;;;20.70;98868.00;;;;5117418;28;20236;-69
2022/07/16 08:34:54;;;;;;;0.73;0.73;;;;;20.70;98867.00;;;;5117474;28;20272;-69
2022/07/16 08:37:33;;;;;;;0.50;0.50;;;;;20.80;98870.00;;;;5117339;28;20290;-69
2022/07/16 08:40:00;;;;;;;0.50;0.50;;;;;20.90;98860.00;;;;5117486;28;20186;-69
2022/07/16 08:42:27;;;;;;;0.93;0.93;;;;;21.00;98867.00;;;;5117557;28;20228;-69
2022/07/16 08:44:54;;;;;;;0.60;0.60;;;;;21.20;98863.00;;;;5117286;28;20190;-70
2022/07/16 08:47:23;;;;;;;0.47;0.47;;;;;21.20;98863.00;;;;5117152;28;20234;-71
2022/07/16 08:49:51;;;;;;;0.40;0.40;;;;;21.30;98850.00;;;;5117293;28;20214;-70
2022/07/16 08:52:20;;;;;;;0.70;0.70;;;;;21.40;98862.00;;;;5117121;28;20244;-70
2022/07/16 08:54:49;;;;;;;0.50;0.50;;;;;21.40;98873.00;;;;5117150;28;20186;-70
2022/07/16 08:57:18;;;;;;;0.40;0.40;;;;;21.50;98874.00;;;;5117129;28;20260;-70
2022/07/16 08:59:45;;;;;;;0.52;0.52;;;;;21.40;98870.00;;;;5117094;28;20213;-72
2022/07/16 09:02:12;;;;;;;0.60;0.60;;;;;21.50;98863.00;;;;5116948;28;20679;-70
2022/07/16 09:04:40;;;;;;;0.73;0.73;;;;;21.50;98861.00;;;;5116964;28;20262;-69
2022/07/16 09:07:10;;;;;;;0.50;0.50;;;;;21.50;98871.00;;;;5116795;28;20222;-69
2022/07/16 09:09:37;;;;;;;0.50;0.50;;;;;21.70;98870.00;;;;5116969;28;20205;-71
2022/07/16 09:12:07;;;;;;;0.70;0.70;;;;;21.90;98866.00;;;;5116857;28;20221;-70
2022/07/16 09:14:33;;;;;;;1.13;1.13;;;;;22.00;98866.00;;;;5116945;28;20194;-70
2022/07/16 09:17:01;;;;;;;0.55;0.55;;;;;22.00;98858.00;;;;5116916;28;20247;-70
2022/07/16 09:19:30;;;;;;;0.50;0.50;;;;;22.00;98871.00;;;;5116841;28;20193;-70
2022/07/16 09:22:15;;;;;;;0.50;0.50;;;;;22.00;98877.00;;;;5116910;28;20313;-70
2022/07/16 09:24:46;;;;;;;3.50;0.98;;;;;22.10;98872.00;;;;5116658;28;20190;-70
2022/07/16 09:27:16;;;;;;;0.80;0.80;;;;;22.50;98873.00;;;;5116546;28;20221;-70
2022/07/16 09:29:47;;;;;;;0.65;0.65;;;;;22.60;98879.00;;;;5116669;28;20202;-69
2022/07/16 09:32:27;;;;;;;0.95;0.95;;;;;22.60;98877.00;;;;5116560;28;20229;-70
2022/07/16 09:35:04;;;;;;;0.52;0.52;;;;;22.70;98882.00;;;;5116702;28;20205;-70
2022/07/16 09:37:46;;;;;;;0.55;0.55;;;;;22.60;98880.00;;;;5116088;28;20228;-70
2022/07/16 09:40:14;;;;;;;0.60;0.60;;;;;22.70;98882.00;;;;5116560;28;20194;-70
2022/07/16 09:42:41;;;;;;;0.60;0.60;;;;;22.70;98877.00;;;;5116267;28;20228;-70
2022/07/16 09:45:18;;;;;;;2.47;0.90;;;;;22.80;98886.00;;;;5116442;28;20637;-70
2022/07/16 09:47:45;;;;;;;0.50;0.50;;;;;22.70;98875.00;;;;5116360;28;20253;-70
2022/07/16 09:50:15;;;;;;;0.70;0.70;;;;;22.70;98881.00;;;;5116241;28;20563;-69
2022/07/16 09:52:42;;;;;;;0.63;0.63;;;;;22.60;98870.00;;;;5116106;28;20274;-69
2022/07/16 09:55:12;;;;;;;0.60;0.60;;;;;22.60;98878.00;;;;5116216;28;20633;-69
2022/07/16 09:57:40;;;;;;;0.40;0.40;;;;;22.80;98877.00;;;;5116043;28;20236;-70
2022/07/16 10:00:09;;;;;;;1.10;1.00;;;;;23.00;98872.00;;;;5116140;28;20197;-69
2022/07/16 10:02:38;;;;;;;1.15;0.90;;;;;23.20;98884.00;;;;5116093;28;20218;-69
2022/07/16 10:05:05;;;;;;;0.80;0.80;;;;;23.50;98870.00;;;;5116136;28;20216;-69
2022/07/16 10:07:32;;;;;;;1.15;1.05;;;;;23.60;98879.00;;;;5115829;28;20253;-69
2022/07/16 10:09:59;;;;;;;0.55;0.55;;;;;23.70;98880.00;;;;5115976;28;20182;-69
2022/07/16 10:12:29;;;;;;;0.60;0.60;;;;;23.50;98869.00;;;;5115866;28;20661;-69
2022/07/16 10:15:00;;;;;;;0.60;0.60;;;;;23.70;98872.00;;;;5115997;28;20194;-70
2022/07/16 10:17:32;;;;;;;0.50;0.50;;;;;23.80;98880.00;;;;5115964;28;20245;-69
2022/07/16 10:20:01;;;;;;;0.60;0.60;;;;;23.70;98880.00;;;;5097915;28;20545;-69
2022/07/16 10:22:30;;;;;;;0.50;0.50;;;;;23.40;98872.00;;;;5115812;28;20229;-69
2022/07/16 10:25:00;;;;;;;0.43;0.43;;;;;23.40;98880.00;;;;5115751;28;20202;-70
2022/07/16 10:27:30;;;;;;;0.57;0.57;;;;;23.40;98878.00;;;;5115848;28;20230;-71
2022/07/16 10:30:09;;;;;;;0.52;0.52;;;;;23.90;98874.00;;;;5115878;28;20645;-69
2022/07/16 10:33:17;;;;;;;0.52;0.52;;;;;24.10;98876.00;;;;5115705;28;20222;-69
2022/07/16 10:35:49;;;;;;;0.50;0.50;;;;;24.40;98874.00;;;;5115707;28;20202;-70
2022/07/16 10:38:21;;;;;;;0.60;0.60;;;;;24.70;98867.00;;;;5115734;28;20226;-70
2022/07/16 10:41:08;;;;;;;0.47;0.47;;;;;24.90;98872.00;;;;5115600;28;20186;-70
2022/07/16 10:43:37;;;;;;;0.50;0.50;;;;;24.70;98873.00;;;;5115313;28;20555;-70
2022/07/16 10:46:06;;;;;;;0.60;0.60;;;;;24.90;98871.00;;;;5115442;28;20273;-70
2022/07/16 10:49:14;;;;;;;0.80;0.80;;;;;25.00;98873.00;;;;5114477;28;20290;-69
2022/07/16 10:51:55;;;;;;;0.70;0.70;;;;;24.90;98872.00;;;;5097390;28;20582;-70
2022/07/16 10:54:22;;;;;;;0.70;0.70;;;;;25.10;98872.00;;;;5115312;28;20186;-70
2022/07/16 10:56:50;;;;;;;0.40;0.40;;;;;25.50;98876.00;;;;5115281;28;20216;-70
2022/07/16 10:59:21;;;;;;;0.60;0.60;;;;;25.50;98873.00;;;;5115225;28;20633;-70
2022/07/16 11:01:51;;;;;;;0.50;0.50;;;;;25.20;98871.00;;;;5115190;28;20213;-70
2022/07/16 11:04:27;;;;;;;0.43;0.43;;;;;25.10;98876.00;;;;5115358;28;20206;-70
2022/07/16 11:06:55;;;;;;;1.00;0.98;;;;;25.10;98867.00;;;;5115031;28;20256;-70
2022/07/16 11:09:27;;;;;;;0.88;0.88;;;;;24.90;98873.00;;;;5115017;28;20190;-70
2022/07/16 11:11:55;;;;;;;0.70;0.70;;;;;25.30;98883.00;;;;5115021;28;20200;-70
2022/07/16 11:14:29;;;;;;;0.60;0.60;;;;;25.10;98877.00;;;;5115001;28;20273;-70
2022/07/16 11:16:57;;;;;;;1.13;1.02;;;;;25.30;98872.00;;;;5096996;28;20209;-71
2022/07/16 11:19:24;;;;;;;9.50;1.33;;;;;25.80;98879.00;;;;5114859;28;20242;-70
2022/07/16 11:21:56;;;;;;;2.25;0.98;;;;;26.20;98873.00;;;;5114769;28;20210;-68
2022/07/16 11:24:23;;;;;;;0.60;0.60;;;;;26.30;98873.00;;;;5114818;28;20195;-68
2022/07/16 11:26:53;;;;;;;0.50;0.50;;;;;26.50;98883.00;;;;5114696;28;20217;-68
2022/07/16 11:29:25;;;;;;;0.73;0.73;;;;;26.70;98872.00;;;;5114776;28;20510;-69
2022/07/16 11:31:57;;;;;;;0.60;0.60;;;;;26.90;98877.00;;;;5114914;28;20194;-69
2022/07/16 11:34:24;;;;;;;0.65;0.65;;;;;26.90;98871.00;;;;5114733;28;20190;-68
2022/07/16 11:36:54;;;;;;;0.60;0.60;;;;;26.90;98873.00;;;;5114696;28;20725;-68
2022/07/16 11:39:23;;;;;;;0.82;0.82;;;;;26.60;98873.00;;;;5114616;28;20214;-68
2022/07/16 11:41:53;;;;;;;0.60;0.60;;;;;26.80;98874.00;;;;5114557;28;20197;-70
2022/07/16 11:44:23;;;;;;;0.60;0.60;;;;;27.00;98881.00;;;;5114490;28;20228;-69
2022/07/16 11:46:52;;;;;;;0.88;0.88;;;;;27.10;98883.00;;;;5114339;28;20289;-69
2022/07/16 11:49:26;;;;;;;0.70;0.70;;;;;27.40;98876.00;;;;5114522;28;20221;-69
2022/07/16 11:51:54;;;;;;;0.60;0.60;;;;;27.50;98881.00;;;;5114568;28;20198;-69
2022/07/16 11:54:21;;;;;;;0.50;0.50;;;;;27.60;98868.00;;;;5114368;28;20821;-69
2022/07/16 11:56:49;;;;;;;0.50;0.50;;;;;27.80;98870.00;;;;5114419;28;20235;-69
2022/07/16 11:59:21;;;;;;;0.52;0.52;;;;;27.80;98875.00;;;;5114327;28;20224;-69
2022/07/16 12:01:56;;;;;;;0.55;0.55;;;;;27.80;98862.00;;;;5114269;28;20621;-69
2022/07/16 12:04:36;;;;;;;2.15;0.70;;;;;27.70;98871.00;;;;5114183;28;20217;-69
2022/07/16 12:07:04;;;;;;;0.52;0.52;;;;;28.00;98874.00;;;;5096271;28;20216;-69
2022/07/16 12:09:35;;;;;;;0.95;0.95;;;;;28.60;98879.00;;;;5114144;28;20222;-69
2022/07/16 12:12:06;;;;;;;0.57;0.57;;;;;28.70;98876.00;;;;5114091;28;20197;-70
2022/07/16 12:14:47;;;;;;;0.60;0.60;;;;;28.80;98876.00;;;;5114187;28;20221;-69
2022/07/16 12:17:36;;;;;;;0.80;0.80;;;;;28.70;98881.00;;;;5114113;28;20285;-69
2022/07/16 12:20:16;;;;;;;0.55;0.55;;;;;29.00;98879.00;;;;5107231;28;20242;-70
2022/07/16 12:22:57;;;;;;;0.57;0.57;;;;;29.10;98881.00;;;;5114092;28;20181;-69
2022/07/16 12:25:34;;;;;;;2.17;0.95;;;;;29.10;98875.00;;;;5114055;28;20193;-69
2022/07/16 12:28:04;;;;;;;0.52;0.52;;;;;29.20;98879.00;;;;5113849;28;20303;-69
2022/07/16 12:30:33;;;;;;;0.52;0.52;;;;;29.20;98889.00;;;;5113974;28;20243;-69
2022/07/16 12:33:01;;;;;;;0.60;0.60;;;;;29.30;98882.00;;;;5113726;28;20202;-69